Time;durP1;ratioP1;P1;durP2;ratioP2;P2;SDS_P1;SDS_P2;PMS_P1;PMS_P2;Temp;Humidity;BMP_temperature;BMP_pressure;BME280_temperature;BME280_humidity;BME280_pressure;Samples;Min_cycle;Max_cycle;Signal;HPM_P1;HPM_P2
2022/09/12 00:01:33;;;;;;;13.15;9.60;;;;;;;12.79;100.00;101150.81;5103073;27;20077;-85
2022/09/12 00:04:08;;;;;;;13.73;9.63;;;;;;;12.77;100.00;101150.81;5100255;27;20064;-86
2022/09/12 00:06:37;;;;;;;13.43;8.85;;;;;;;12.75;100.00;101147.38;5104081;27;20036;-86
2022/09/12 00:09:11;;;;;;;17.20;10.48;;;;;;;12.71;100.00;101148.25;5125046;27;20024;-86
2022/09/12 00:11:44;;;;;;;15.77;11.20;;;;;;;12.68;100.00;101148.28;5115899;28;20040;-85
2022/09/12 00:14:23;;;;;;;12.98;10.18;;;;;;;12.64;100.00;101150.06;5135976;27;20072;-85
2022/09/12 00:16:51;;;;;;;14.95;10.20;;;;;;;12.60;100.00;101143.13;5128906;27;20065;-85
2022/09/12 00:19:18;;;;;;;14.30;10.38;;;;;;;12.55;100.00;101143.19;5116258;28;20032;-85
2022/09/12 00:21:50;;;;;;;17.23;10.40;;;;;;;12.51;100.00;101145.84;5111814;27;20044;-85
2022/09/12 00:24:18;;;;;;;15.30;11.25;;;;;;;12.48;100.00;101151.13;5099195;27;20130;-86
2022/09/12 00:26:47;;;;;;;18.48;12.45;;;;;;;12.45;100.00;101145.88;5074170;28;20113;-85
2022/09/12 00:29:23;;;;;;;16.88;11.20;;;;;;;12.44;100.00;101145.03;5089420;28;20119;-85
2022/09/12 00:31:54;;;;;;;14.43;11.93;;;;;;;12.41;100.00;101142.41;5087031;28;20437;-85
2022/09/12 00:34:23;;;;;;;16.58;11.68;;;;;;;12.39;100.00;101141.56;5067573;27;20235;-84
2022/09/12 00:36:50;;;;;;;16.23;11.82;;;;;;;12.37;100.00;101141.59;5084627;27;20043;-85
2022/09/12 00:39:18;;;;;;;17.75;12.07;;;;;;;12.37;100.00;101145.94;5114924;27;20055;-85
2022/09/12 00:41:45;;;;;;;16.15;12.30;;;;;;;12.34;100.00;101135.47;5083931;28;20048;-85
2022/09/12 00:44:11;;;;;;;21.70;12.25;;;;;;;12.30;100.00;101134.63;5101091;27;20138;-85
2022/09/12 00:46:47;;;;;;;20.52;12.68;;;;;;;12.27;100.00;101129.41;5097288;27;20040;-84
2022/09/12 00:49:47;;;;;;;18.83;12.05;;;;;;;12.27;100.00;101128.53;5097955;27;20047;-85
2022/09/12 00:52:52;;;;;;;13.23;10.88;;;;;;;12.22;100.00;101129.44;5104259;27;20140;-85
2022/09/12 00:55:35;;;;;;;13.95;10.43;;;;;;;12.16;100.00;101129.50;5083784;28;20059;-85
2022/09/12 00:58:27;;;;;;;17.92;12.25;;;;;;;12.15;100.00;101132.13;5120626;28;20069;-85
2022/09/12 01:00:54;;;;;;;13.20;9.45;;;;;;;12.11;100.00;101131.31;5089969;28;20079;-85
2022/09/12 01:03:24;;;;;;;16.05;11.55;;;;;;;12.07;100.00;101129.56;5099147;28;20055;-86
2022/09/12 01:06:09;;;;;;;11.20;9.13;;;;;;;12.05;100.00;101129.56;5095910;28;20040;-86
2022/09/12 01:08:37;;;;;;;14.45;10.57;;;;;;;12.05;100.00;101128.72;5103779;28;20056;-85
2022/09/12 01:11:06;;;;;;;18.15;11.65;;;;;;;12.04;100.00;101122.56;5085401;28;20070;-84
2022/09/12 01:13:35;;;;;;;14.55;11.27;;;;;;;12.04;100.00;101127.81;5096635;28;20043;-84
2022/09/12 01:16:04;;;;;;;14.13;9.95;;;;;;;12.03;100.00;101127.84;5129849;27;20059;-84
2022/09/12 01:19:06;;;;;;;14.27;10.70;;;;;;;12.00;100.00;101120.00;5093618;28;20048;-86
2022/09/12 01:22:22;;;;;;;18.17;11.68;;;;;;;11.97;100.00;101113.03;5126304;28;20040;-84
2022/09/12 01:25:25;;;;;;;15.73;10.90;;;;;;;11.97;100.00;101114.75;5116250;28;20154;-85
2022/09/12 01:28:40;;;;;;;12.02;9.57;;;;;;;11.92;100.00;101114.78;5109364;28;20028;-85
2022/09/12 01:31:35;;;;;;;15.45;11.43;;;;;;;11.89;100.00;101106.94;5127353;28;20067;-85
2022/09/12 01:34:27;;;;;;;15.75;11.27;;;;;;;11.88;100.00;101113.91;5101375;28;20044;-85
2022/09/12 01:37:27;;;;;;;13.88;10.10;;;;;;;11.85;100.00;101113.94;5094919;28;20490;-85
2022/09/12 01:40:19;;;;;;;14.82;10.80;;;;;;;11.79;100.00;101106.13;5090923;28;20051;-83
2022/09/12 01:43:17;;;;;;;19.33;12.45;;;;;;;11.78;100.00;101101.75;5107344;28;20059;-85
2022/09/12 01:46:16;;;;;;;17.48;10.95;;;;;;;11.79;100.00;101100.00;5084996;28;20041;-85
2022/09/12 01:49:18;;;;;;;14.73;10.40;;;;;;;11.79;100.00;101105.25;5084205;28;20040;-85
2022/09/12 01:51:57;;;;;;;16.02;11.23;;;;;;;11.74;100.00;101103.50;5105580;28;20063;-84
2022/09/12 01:54:38;;;;;;;15.38;11.10;;;;;;;11.73;100.00;101098.28;5102915;28;21192;-86
2022/09/12 01:57:16;;;;;;;12.73;10.13;;;;;;;11.73;100.00;101091.31;5091799;28;20569;-85
2022/09/12 01:59:53;;;;;;;12.60;9.52;;;;;;;11.74;100.00;101090.41;5094973;28;20054;-85
2022/09/12 02:02:34;;;;;;;13.13;10.45;;;;;;;11.75;100.00;101083.41;5111739;28;20058;-84
2022/09/12 02:05:08;;;;;;;23.25;11.20;;;;;;;11.75;100.00;101091.28;5100323;28;20075;-85
2022/09/12 02:07:43;;;;;;;16.30;12.60;;;;;;;11.71;100.00;101090.44;5123143;28;20035;-84
2022/09/12 02:10:17;;;;;;;18.10;11.25;;;;;;;11.69;100.00;101088.69;5101668;28;20031;-84
2022/09/12 02:12:55;;;;;;;14.18;10.13;;;;;;;11.66;100.00;101076.47;5105995;28;20119;-85
2022/09/12 02:15:35;;;;;;;13.20;10.52;;;;;;;11.66;100.00;101080.88;5119237;27;20043;-85
2022/09/12 02:18:06;;;;;;;17.55;10.10;;;;;;;11.64;100.00;101080.00;5126452;27;20044;-84
2022/09/12 02:20:39;;;;;;;17.83;10.60;;;;;;;11.61;100.00;101075.63;5105890;27;20494;-85
2022/09/12 02:23:24;;;;;;;14.30;10.45;;;;;;;11.58;100.00;101079.16;5084990;28;20161;-85
2022/09/12 02:25:58;;;;;;;10.82;8.75;;;;;;;11.54;100.00;101079.19;5090732;28;20048;-85
2022/09/12 02:28:35;;;;;;;11.77;10.20;;;;;;;11.51;100.00;101068.69;5105468;27;20048;-85
2022/09/12 02:31:37;;;;;;;14.43;10.55;;;;;;;11.49;100.00;101079.19;5090725;28;20119;-85
2022/09/12 02:34:20;;;;;;;18.15;11.10;;;;;;;11.46;100.00;101071.38;5107572;27;20040;-86
2022/09/12 02:37:08;;;;;;;13.77;10.13;;;;;;;11.42;100.00;101078.38;5110444;27;20122;-86
2022/09/12 02:39:41;;;;;;;14.75;10.40;;;;;;;11.40;100.00;101072.25;5090760;28;20047;-84
2022/09/12 02:42:12;;;;;;;15.18;10.70;;;;;;;11.39;100.00;101080.13;5109142;27;20143;-85
2022/09/12 02:44:40;;;;;;;13.88;9.48;;;;;;;11.36;100.00;101067.06;5087648;27;20873;-85
2022/09/12 02:47:18;;;;;;;13.90;9.73;;;;;;;11.35;100.00;101063.53;5089473;28;20043;-85
2022/09/12 02:49:47;;;;;;;12.80;10.10;;;;;;;11.35;100.00;101071.41;5106104;27;20056;-85
2022/09/12 02:52:15;;;;;;;18.13;11.02;;;;;;;11.34;100.00;101066.19;5099534;27;20511;-85
2022/09/12 02:54:46;;;;;;;13.75;10.93;;;;;;;11.33;100.00;101064.44;5096688;27;20757;-86
2022/09/12 02:57:21;;;;;;;14.00;11.40;;;;;;;11.33;100.00;101053.94;5088247;27;20052;-85
2022/09/12 02:59:49;;;;;;;17.85;11.32;;;;;;;11.28;100.00;101066.19;5096404;28;20056;-85
2022/09/12 03:02:40;;;;;;;16.48;11.00;;;;;;;11.27;100.00;101054.00;5102439;27;20048;-85
2022/09/12 03:06:01;;;;;;;19.05;12.05;;;;;;;11.25;100.00;101054.00;5106328;27;20039;-85
2022/09/12 03:08:59;;;;;;;14.07;11.07;;;;;;;11.20;100.00;101056.66;5089826;28;20067;-85
2022/09/12 03:12:10;;;;;;;15.23;10.18;;;;;;;11.18;100.00;101058.41;5119045;27;20055;-85
2022/09/12 03:15:00;;;;;;;16.67;11.07;;;;;;;11.19;100.00;101054.91;5100093;27;20051;-85
2022/09/12 03:17:51;;;;;;;21.83;12.55;;;;;;;11.17;100.00;101054.06;5093338;27;20097;-85
2022/09/12 03:20:30;;;;;;;18.95;11.60;;;;;;;11.12;100.00;101053.22;5082928;27;20063;-85
2022/09/12 03:23:07;;;;;;;19.13;12.77;;;;;;;11.11;100.00;101061.94;5107210;27;20057;-85
2022/09/12 03:25:44;;;;;;;17.92;12.82;;;;;;;11.06;100.00;101055.84;5085649;28;20083;-86
2022/09/12 03:28:15;;;;;;;20.40;12.90;;;;;;;11.06;100.00;101056.72;5092660;28;20062;-84
2022/09/12 03:30:46;;;;;;;21.15;11.77;;;;;;;11.06;100.00;101056.72;5092173;27;20147;-85
2022/09/12 03:33:19;;;;;;;19.98;12.15;;;;;;;11.04;100.00;101055.84;5106981;28;20031;-84
2022/09/12 03:35:47;;;;;;;17.88;11.98;;;;;;;11.02;100.00;101054.13;5111852;28;20032;-84
2022/09/12 03:38:14;;;;;;;17.50;10.85;;;;;;;10.98;100.00;101052.41;5117712;27;20040;-83
2022/09/12 03:40:41;;;;;;;18.40;13.30;;;;;;;10.96;100.00;101057.63;5117991;28;20036;-84
2022/09/12 03:43:09;;;;;;;20.13;12.60;;;;;;;10.95;100.00;101062.88;5089209;27;20051;-84
2022/09/12 03:45:39;;;;;;;19.27;12.77;;;;;;;10.95;100.00;101061.13;5110929;27;20067;-84
2022/09/12 03:48:08;;;;;;;18.67;12.23;;;;;;;10.92;100.00;101061.13;5125818;27;20047;-83
2022/09/12 03:50:35;;;;;;;17.20;11.25;;;;;;;10.90;100.00;101060.28;5093158;27;20096;-85
2022/09/12 03:53:03;;;;;;;21.60;12.25;;;;;;;10.90;100.00;101058.53;5099483;27;20333;-85
2022/09/12 03:55:31;;;;;;;16.50;12.38;;;;;;;10.89;100.00;101050.69;5098187;28;20051;-85
2022/09/12 03:57:58;;;;;;;19.02;13.23;;;;;;;10.91;100.00;101056.75;5120153;27;20048;-83
2022/09/12 04:00:26;;;;;;;18.15;11.70;;;;;;;10.90;100.00;101057.66;5115671;28;20065;-85
2022/09/12 04:02:57;;;;;;;20.60;12.90;;;;;;;10.88;100.00;101052.41;5098262;28;20087;-85
2022/09/12 04:05:25;;;;;;;20.08;12.57;;;;;;;10.89;100.00;101055.91;5099261;27;20037;-84
2022/09/12 04:07:52;;;;;;;19.00;12.27;;;;;;;10.88;100.00;101051.56;5100180;28;20112;-82
2022/09/12 04:10:22;;;;;;;25.23;12.40;;;;;;;10.88;100.00;101060.25;5130797;27;20032;-84
2022/09/12 04:12:51;;;;;;;18.17;12.43;;;;;;;10.88;100.00;101062.03;5109098;27;20051;-85
2022/09/12 04:15:17;;;;;;;17.48;12.02;;;;;;;10.88;100.00;101062.03;5111642;27;20050;-85
2022/09/12 04:17:49;;;;;;;23.77;13.90;;;;;;;10.85;100.00;101060.28;5115131;27;20501;-86
2022/09/12 04:20:18;;;;;;;18.83;12.50;;;;;;;10.86;100.00;101055.91;5114009;27;20043;-85
2022/09/12 04:22:53;;;;;;;21.15;13.50;;;;;;;10.85;100.00;101065.53;5114756;27;20051;-84
2022/09/12 04:25:24;;;;;;;18.85;12.40;;;;;;;10.85;100.00;101054.19;5126102;27;20051;-85
2022/09/12 04:27:53;;;;;;;20.77;12.73;;;;;;;10.83;100.00;101059.41;5128204;28;20028;-85
2022/09/12 04:30:20;;;;;;;21.02;13.45;;;;;;;10.80;100.00;101059.44;5131880;27;20052;-85
2022/09/12 04:32:47;;;;;;;19.95;12.95;;;;;;;10.78;100.00;101055.97;5105005;28;20040;-85
2022/09/12 04:35:15;;;;;;;17.38;11.35;;;;;;;10.78;100.00;101060.31;5124080;27;20180;-85
2022/09/12 04:37:43;;;;;;;22.48;14.50;;;;;;;10.76;100.00;101061.19;5107922;28;20040;-84
2022/09/12 04:40:09;;;;;;;20.00;11.90;;;;;;;10.79;100.00;101062.06;5094965;28;20040;-85
2022/09/12 04:42:37;;;;;;;17.13;12.15;;;;;;;10.78;100.00;101065.56;5088065;28;20039;-85
2022/09/12 04:45:05;;;;;;;18.00;12.45;;;;;;;10.76;100.00;101073.41;5118780;28;20043;-84
2022/09/12 04:47:34;;;;;;;22.25;13.80;;;;;;;10.76;100.00;101065.56;5139375;27;20050;-86
2022/09/12 04:50:01;;;;;;;19.27;12.00;;;;;;;10.74;100.00;101062.06;5105862;28;20061;-84
2022/09/12 04:52:42;;;;;;;19.27;14.10;;;;;;;10.75;100.00;101061.19;5122578;28;20073;-85
2022/09/12 04:55:10;;;;;;;21.60;13.18;;;;;;;10.78;100.00;101062.94;5103923;27;20446;-85
2022/09/12 04:57:39;;;;;;;15.68;11.68;;;;;;;10.76;100.00;101063.81;5118457;27;20036;-85
2022/09/12 05:00:15;;;;;;;28.67;13.43;;;;;;;10.78;100.00;101066.44;5110026;28;20044;-85
2022/09/12 05:02:44;;;;;;;19.55;13.23;;;;;;;10.81;100.00;101076.00;5101329;28;20060;-85
2022/09/12 05:05:12;;;;;;;18.75;12.73;;;;;;;10.82;100.00;101073.41;5107409;28;20051;-85
2022/09/12 05:07:39;;;;;;;18.58;13.02;;;;;;;10.82;100.00;101076.03;5053932;28;20048;-85
2022/09/12 05:10:06;;;;;;;17.63;13.00;;;;;;;10.80;100.00;101071.66;5099972;28;20059;-85
2022/09/12 05:12:32;;;;;;;21.77;15.93;;;;;;;10.78;100.00;101079.53;5082860;28;20051;-84
2022/09/12 05:14:59;;;;;;;26.38;16.83;;;;;;;10.79;100.00;101077.78;5103402;28;20051;-85
2022/09/12 05:17:34;;;;;;;22.95;15.00;;;;;;;10.79;100.00;101073.41;5090027;28;20051;-85
2022/09/12 05:20:13;;;;;;;25.42;15.82;;;;;;;10.82;100.00;101083.88;5093066;28;20093;-85
2022/09/12 05:22:43;;;;;;;20.83;13.52;;;;;;;10.86;100.00;101076.88;5073119;28;20048;-86
2022/09/12 05:25:16;;;;;;;18.17;13.02;;;;;;;10.89;100.00;101079.50;5108290;28;20062;-84
2022/09/12 05:27:46;;;;;;;17.80;12.02;;;;;;;10.90;100.00;101073.38;5107391;28;20048;-85
2022/09/12 05:30:16;;;;;;;20.38;12.27;;;;;;;10.92;100.00;101076.84;5107673;28;20065;-85
2022/09/12 05:32:48;;;;;;;23.38;14.05;;;;;;;10.95;100.00;101078.59;5098988;28;20937;-85
2022/09/12 05:35:16;;;;;;;17.48;13.20;;;;;;;11.01;100.00;101079.44;5090146;28;20056;-85
2022/09/12 05:37:43;;;;;;;24.60;15.93;;;;;;;11.05;100.00;101075.91;5107744;28;20139;-85
2022/09/12 05:40:16;;;;;;;25.70;17.10;;;;;;;11.11;100.00;101075.03;5120645;28;20051;-85
2022/09/12 05:42:44;;;;;;;22.27;14.38;;;;;;;11.15;100.00;101071.53;5100351;28;20051;-86
2022/09/12 05:45:10;;;;;;;21.00;14.75;;;;;;;11.22;100.00;101080.22;5110351;28;20116;-85
2022/09/12 05:47:37;;;;;;;23.10;14.30;;;;;;;11.27;100.00;101073.22;5125136;28;20082;-85
2022/09/12 05:50:09;;;;;;;19.40;14.05;;;;;;;11.34;100.00;101079.28;5102377;28;20154;-85
2022/09/12 05:52:37;;;;;;;23.33;13.23;;;;;;;11.39;100.00;101077.50;5117198;27;20109;-84
2022/09/12 05:55:06;;;;;;;20.60;13.77;;;;;;;11.43;100.00;101074.00;5111255;28;20111;-85
2022/09/12 05:57:35;;;;;;;24.15;13.77;;;;;;;11.51;100.00;101076.56;5095342;28;20052;-85
2022/09/12 06:02:44;;;;;;;21.52;13.05;;;;;;;11.64;100.00;101082.59;5094561;27;20055;-84
2022/09/12 06:05:11;;;;;;;17.63;13.73;;;;;;;11.72;100.00;101075.53;5074163;28;20079;-84
2022/09/12 06:07:38;;;;;;;23.92;16.00;;;;;;;11.79;100.00;101084.28;5075926;28;20048;-85
2022/09/12 06:10:05;;;;;;;17.85;12.65;;;;;;;11.87;100.00;101079.84;5107446;28;20092;-84
2022/09/12 06:12:32;;;;;;;20.65;11.35;;;;;;;11.97;100.00;101073.66;5102593;28;20043;-85
2022/09/12 06:14:59;;;;;;;15.15;11.70;;;;;;;12.12;100.00;101082.28;5107872;28;20081;-85
2022/09/12 06:17:26;;;;;;;16.02;12.38;;;;;;;12.30;100.00;101082.13;5114819;27;20052;-85
2022/09/12 06:19:54;;;;;;;17.98;12.70;;;;;;;12.56;100.00;101079.25;5077599;28;20531;-85
2022/09/12 06:22:21;;;;;;;32.78;21.27;;;;;;;12.87;100.00;101078.91;5094046;28;20058;-84
2022/09/12 06:24:49;;;;;;;21.35;14.05;;;;;;;13.19;100.00;101071.50;5090483;28;20070;-85
2022/09/12 06:27:19;;;;;;;17.52;11.88;;;;;;;13.48;100.00;101068.53;5088317;28;20044;-86
2022/09/12 06:29:46;;;;;;;14.75;10.65;;;;;;;13.77;100.00;101067.22;5111556;28;20067;-85
2022/09/12 06:32:15;;;;;;;16.63;12.23;;;;;;;13.98;100.00;101063.38;5126312;28;20079;-85
2022/09/12 06:34:50;;;;;;;14.73;10.25;;;;;;;14.23;100.00;101065.59;5103117;28;20024;-84
2022/09/12 06:37:19;;;;;;;13.77;10.07;;;;;;;14.57;100.00;101057.06;5137126;27;20043;-84
2022/09/12 06:39:47;;;;;;;15.20;10.95;;;;;;;14.87;100.00;101057.38;5132836;28;20031;-84
2022/09/12 06:42:14;;;;;;;12.82;9.73;;;;;;;15.17;100.00;101060.28;5135607;28;20036;-84
2022/09/12 06:44:43;;;;;;;16.08;10.75;;;;;;;15.35;100.00;101057.22;5108765;28;20027;-85
2022/09/12 06:47:10;;;;;;;12.60;9.52;;;;;;;15.64;100.00;101054.84;5138611;27;20122;-85
2022/09/12 06:49:37;;;;;;;11.30;9.60;;;;;;;15.97;97.38;101057.59;5119317;27;20070;-86
2022/09/12 06:52:06;;;;;;;15.60;9.55;;;;;;;16.25;95.67;101049.84;5110488;28;20051;-86
2022/09/12 06:54:32;;;;;;;19.27;10.05;;;;;;;16.58;92.90;101055.09;5092383;28;20170;-86
2022/09/12 06:57:04;;;;;;;15.52;9.57;;;;;;;16.77;90.28;101051.97;5108218;28;20044;-86
2022/09/12 06:59:34;;;;;;;16.17;10.95;;;;;;;16.90;89.13;101050.72;5110919;28;20051;-85
2022/09/12 07:02:02;;;;;;;12.30;9.57;;;;;;;17.03;88.29;101053.88;5108144;28;20482;-85
2022/09/12 07:04:29;;;;;;;13.90;9.10;;;;;;;17.38;85.96;101054.59;5105965;28;20048;-86
2022/09/12 07:06:55;;;;;;;24.88;11.30;;;;;;;17.68;83.02;101050.09;5112083;28;20047;-85
2022/09/12 07:09:22;;;;;;;14.18;9.20;;;;;;;17.99;82.09;101048.25;5095763;28;20047;-86
2022/09/12 07:11:59;;;;;;;12.60;9.27;;;;;;;18.22;81.04;101049.28;5077242;28;20044;-86
2022/09/12 07:14:26;;;;;;;15.63;8.82;;;;;;;18.61;79.27;101046.13;5113936;28;20042;-86
2022/09/12 07:16:53;;;;;;;13.40;9.27;;;;;;;18.85;76.63;101058.50;5097490;28;20059;-87
2022/09/12 07:19:21;;;;;;;12.52;7.78;;;;;;;19.16;75.26;101054.72;5103664;28;20797;-87
2022/09/12 07:21:54;;;;;;;11.70;8.73;;;;;;;19.45;74.26;101055.38;5109243;27;20548;-86
2022/09/12 07:24:23;;;;;;;10.60;8.18;;;;;;;19.69;73.14;101057.09;5108301;28;20052;-87
2022/09/12 07:26:52;;;;;;;11.07;7.97;;;;;;;19.77;71.82;101055.84;5090558;28;20052;-86
2022/09/12 07:29:22;;;;;;;10.15;7.40;;;;;;;19.88;72.19;101060.75;5100237;28;20055;-86
2022/09/12 07:31:49;;;;;;;9.30;7.85;;;;;;;20.22;70.28;101050.47;5092160;28;20097;-86
2022/09/12 07:34:17;;;;;;;12.45;8.15;;;;;;;20.68;68.90;101048.47;5116389;28;20134;-86
2022/09/12 07:36:47;;;;;;;8.18;7.32;;;;;;;20.91;67.34;101054.56;5109874;28;20071;-86
2022/09/12 07:39:25;;;;;;;9.55;8.15;;;;;;;21.04;66.03;101057.50;5124461;28;20081;-86
2022/09/12 07:41:52;;;;;;;8.85;7.95;;;;;;;21.24;64.42;101054.78;5112589;28;20050;-87
2022/09/12 07:44:20;;;;;;;8.73;6.97;;;;;;;21.70;65.11;101051.72;5093766;28;20139;-87
2022/09/12 07:46:47;;;;;;;10.13;8.18;;;;;;;21.97;62.57;101051.31;5120618;27;20505;-87
2022/09/12 07:49:14;;;;;;;8.95;7.55;;;;;;;22.16;61.09;101056.53;5102247;28;20031;-86
2022/09/12 07:51:44;;;;;;;10.38;7.97;;;;;;;22.33;59.56;101049.47;5119112;28;20028;-86
2022/09/12 07:54:17;;;;;;;7.43;6.70;;;;;;;22.78;60.80;101059.53;5118119;28;20082;-87
2022/09/12 07:56:45;;;;;;;10.20;9.13;;;;;;;23.24;58.64;101055.34;5109381;28;20051;-88
2022/09/12 08:02:02;;;;;;;7.43;6.07;;;;;;;23.59;57.23;101056.00;5095827;28;20086;-87
2022/09/12 08:04:41;;;;;;;;;;;;;;;23.77;53.80;101058.56;5114188;28;20058;-87
2022/09/12 08:07:11;;;;;;;10.45;7.03;;;;;;;23.86;55.53;101054.50;5117271;27;20166;-86
2022/09/12 08:09:41;;;;;;;8.18;7.38;;;;;;;23.98;54.94;101060.97;5106234;28;20491;-87
2022/09/12 08:12:12;;;;;;;9.63;7.38;;;;;;;24.41;53.61;101061.94;5107148;28;20121;-87
2022/09/12 08:14:39;;;;;;;8.68;6.85;;;;;;;25.07;52.21;101053.44;5097771;28;20119;-86
2022/09/12 08:22:33;;;;;;;6.85;6.25;;;;;;;25.86;49.56;101062.63;5122061;27;20050;-87
2022/09/12 08:25:00;;;;;;;7.28;6.68;;;;;;;25.86;49.31;101051.03;5091601;28;20047;-86
2022/09/12 08:27:39;;;;;;;7.35;5.88;;;;;;;25.75;48.95;101051.78;5085043;28;20410;-86
2022/09/12 08:30:08;;;;;;;8.32;6.88;;;;;;;26.00;49.29;101056.34;5104595;28;20052;-87
2022/09/12 08:32:45;;;;;;;6.90;6.22;;;;;;;26.33;48.33;101055.00;5113385;28;20051;-88
2022/09/12 08:35:12;;;;;;;5.95;5.40;;;;;;;26.33;47.99;101049.63;5104279;28;20044;-88
2022/09/12 08:37:39;;;;;;;7.07;6.38;;;;;;;26.55;46.99;101050.84;5070811;28;20505;-87
2022/09/12 08:40:07;;;;;;;8.63;6.57;;;;;;;26.88;46.28;101046.75;5108852;28;20104;-87
2022/09/12 08:42:51;;;;;;;9.05;6.60;;;;;;;27.36;43.84;101048.66;5093836;28;20596;-87
2022/09/12 08:45:45;;;;;;;8.77;6.72;;;;;;;27.15;43.78;101043.88;5113495;27;20048;-89
2022/09/12 08:48:19;;;;;;;7.70;6.97;;;;;;;27.05;44.96;101054.47;5087198;28;20071;-87
2022/09/12 08:50:47;;;;;;;7.97;7.25;;;;;;;27.27;44.31;101055.56;5107077;28;20111;-87
2022/09/12 08:53:22;;;;;;;7.95;6.05;;;;;;;27.30;44.43;101057.16;5079366;28;20055;-87
2022/09/12 08:56:07;;;;;;;10.38;6.30;;;;;;;27.61;43.11;101053.09;5067122;28;20052;-86
2022/09/12 08:58:45;;;;;;;7.78;6.05;;;;;;;27.95;42.60;101055.94;5106820;28;20044;-88
2022/09/12 09:01:33;;;;;;;6.35;5.75;;;;;;;28.45;41.15;101054.88;5111814;28;20063;-88
2022/09/12 09:04:29;;;;;;;7.20;5.75;;;;;;;28.74;41.00;101055.28;5106599;28;20060;-88
2022/09/12 09:07:16;;;;;;;5.43;4.93;;;;;;;29.27;40.48;101046.56;5110256;28;20060;-88
2022/09/12 09:10:25;;;;;;;8.15;6.50;;;;;;;28.79;39.15;101049.53;5101998;28;20335;-88
2022/09/12 09:14:46;;;;;;;6.07;5.57;;;;;;;28.71;39.60;101047.47;5094648;28;20056;-87
2022/09/12 09:16:31;;;;;;;37.55;12.02;;;;;;;27.75;40.28;101037.78;5110291;28;20044;-88
2022/09/12 09:19:12;;;;;;;18.73;7.72;;;;;;;27.39;42.41;101030.50;5106734;28;20039;-88
2022/09/12 09:21:58;;;;;;;6.10;5.53;;;;;;;27.29;41.24;101029.44;5107374;27;20406;-87
2022/09/12 09:24:36;;;;;;;5.68;5.22;;;;;;;27.55;41.67;101027.53;5107657;28;20647;-87
2022/09/12 09:27:30;;;;;;;6.90;6.15;;;;;;;28.04;40.00;101027.50;5092552;28;20074;-88
2022/09/12 09:29:58;;;;;;;6.30;5.57;;;;;;;28.26;40.12;101017.75;5116094;28;20067;-88
2022/09/12 09:32:39;;;;;;;8.15;6.50;;;;;;;28.00;40.37;101024.16;5094689;27;20077;-87
2022/09/12 09:35:27;;;;;;;6.53;6.00;;;;;;;27.41;40.93;101025.03;5098029;27;20394;-87
2022/09/12 09:38:23;;;;;;;7.47;6.68;;;;;;;26.83;42.50;101019.34;5107324;28;20040;-87
2022/09/12 09:41:37;;;;;;;6.82;6.22;;;;;;;26.73;42.81;101027.22;5101440;28;20032;-87
2022/09/12 09:44:06;;;;;;;8.40;6.80;;;;;;;26.38;43.24;101015.28;5107751;28;20047;-86
2022/09/12 09:46:36;;;;;;;6.47;5.63;;;;;;;26.22;43.75;101011.97;5070472;28;20044;-87
2022/09/12 09:49:10;;;;;;;35.30;9.40;;;;;;;26.29;42.85;101015.09;5109652;28;20048;-87
2022/09/12 09:51:42;;;;;;;7.38;4.70;;;;;;;26.14;43.68;101022.34;5102686;28;20043;-86
2022/09/12 09:54:26;;;;;;;;;;;;;;;25.74;44.36;101015.19;5126691;28;20031;-86
2022/09/12 09:56:53;;;;;;;5.50;3.97;;;;;;;25.87;43.76;101008.03;5130689;27;19920;-87
2022/09/12 09:59:35;;;;;;;5.22;3.75;;;;;;;26.49;42.66;101006.50;5100370;28;20043;-87
2022/09/12 10:02:14;;;;;;;4.85;4.43;;;;;;;27.07;41.27;101011.34;5109571;28;20051;-87
2022/09/12 10:04:56;;;;;;;4.93;4.28;;;;;;;27.17;41.50;101000.78;5106980;28;20059;-87
2022/09/12 10:07:24;;;;;;;5.10;4.70;;;;;;;27.29;41.13;101001.72;5123431;28;20044;-86
2022/09/12 10:10:17;;;;;;;4.03;3.60;;;;;;;27.38;40.96;101001.06;5126402;28;20066;-85
2022/09/12 10:12:44;;;;;;;2.92;2.72;;;;;;;27.58;39.81;100996.03;5123455;28;20030;-85
2022/09/12 10:15:20;;;;;;;6.18;3.42;;;;;;;27.54;38.80;100998.06;5142320;27;20023;-85
2022/09/12 10:20:49;;;;;;;3.00;2.80;;;;;;;27.43;38.66;100996.19;5113729;28;20036;-86
2022/09/12 10:23:48;;;;;;;2.70;2.35;;;;;;;27.51;38.81;100993.78;5130460;28;20066;-86
2022/09/12 10:26:24;;;;;;;3.30;2.13;;;;;;;27.63;38.67;100993.84;5118291;28;20068;-86
2022/09/12 10:28:54;;;;;;;3.00;2.22;;;;;;;27.91;37.88;100997.94;5129203;28;20040;-86
2022/09/12 10:31:30;;;;;;;2.45;2.08;;;;;;;28.22;36.73;100990.22;5125942;28;20032;-87
2022/09/12 10:34:00;;;;;;;1.80;1.70;;;;;;;28.12;35.60;100992.78;5106216;28;20776;-87
2022/09/12 10:36:37;;;;;;;2.25;1.40;;;;;;;27.88;35.64;100993.66;5095531;28;20482;-87
2022/09/12 10:39:05;;;;;;;2.60;2.40;;;;;;;27.79;36.87;100990.84;5077727;28;20127;-87
2022/09/12 10:41:39;;;;;;;2.15;2.05;;;;;;;27.42;38.08;100989.09;5084045;28;20047;-87
2022/09/12 10:44:13;;;;;;;1.65;1.55;;;;;;;27.54;38.10;100990.84;5098850;28;20709;-87
2022/09/12 10:46:40;;;;;;;2.63;1.85;;;;;;;27.85;37.68;100985.84;5095920;28;20040;-87
2022/09/12 10:49:36;;;;;;;3.42;1.80;;;;;;;28.08;36.47;100979.69;5093127;28;20040;-86
2022/09/12 10:52:27;;;;;;;2.85;1.85;;;;;;;27.98;36.95;100974.13;5102837;28;20051;-87
2022/09/12 10:54:56;;;;;;;2.58;1.80;;;;;;;28.00;36.95;100975.72;5105198;28;20071;-87
2022/09/12 10:58:19;;;;;;;1.92;1.42;;;;;;;28.45;36.17;100983.00;5113117;27;20810;-88
2022/09/12 11:00:59;;;;;;;2.42;1.58;;;;;;;28.68;35.63;100973.13;5086578;28;20047;-87
2022/09/12 11:04:03;;;;;;;1.70;1.65;;;;;;;28.83;35.16;100960.25;5106742;28;20143;-86
2022/09/12 11:06:52;;;;;;;1.50;1.40;;;;;;;28.54;34.17;100965.28;5095517;28;20520;-87
2022/09/12 11:10:01;;;;;;;1.20;1.20;;;;;;;28.11;34.25;100969.53;5108017;28;20047;-87
2022/09/12 11:13:06;;;;;;;2.35;1.25;;;;;;;28.15;34.38;100967.47;5110784;28;20060;-87
2022/09/12 11:16:08;;;;;;;1.42;1.27;;;;;;;28.41;34.14;100972.59;5113812;27;20050;-87
2022/09/12 11:19:14;;;;;;;1.25;1.25;;;;;;;28.80;33.68;100965.00;5108726;28;20431;-88
2022/09/12 11:22:02;;;;;;;2.33;1.30;;;;;;;29.18;34.06;100959.16;5109099;28;20046;-86
2022/09/12 11:25:03;;;;;;;1.98;1.75;;;;;;;29.26;34.32;100947.75;5120269;27;20070;-87
2022/09/12 11:28:00;;;;;;;4.43;2.20;;;;;;;29.52;33.22;100950.97;5121196;28;20046;-87
2022/09/12 11:30:44;;;;;;;1.50;0.95;;;;;;;29.66;33.44;100949.81;5134145;27;20055;-87
2022/09/12 11:33:47;;;;;;;1.95;1.27;;;;;;;30.17;32.50;100947.31;5100504;28;20578;-87
2022/09/12 11:36:57;;;;;;;1.33;1.23;;;;;;;30.17;32.25;100940.06;5122245;27;20051;-87
2022/09/12 11:39:45;;;;;;;2.35;1.58;;;;;;;29.54;33.25;100940.94;5100124;28;20059;-88
2022/09/12 11:42:27;;;;;;;1.27;1.27;;;;;;;29.42;33.90;100935.72;5114512;28;20051;-89
2022/09/12 11:48:06;;;;;;;1.83;1.30;;;;;;;28.94;34.91;100926.16;5102175;28;20144;-88
2022/09/12 11:50:42;;;;;;;1.65;1.55;;;;;;;28.55;35.80;100922.06;5125656;27;20047;-88
2022/09/12 11:53:29;;;;;;;1.98;1.70;;;;;;;28.04;36.34;100936.00;5110238;28;20054;-87
2022/09/12 11:56:30;;;;;;;1.92;1.42;;;;;;;27.83;36.59;100933.13;5114416;28;20062;-86
2022/09/12 11:59:14;;;;;;;1.60;1.50;;;;;;;27.64;37.36;100928.28;5118822;28;20056;-88
2022/09/12 12:01:54;;;;;;;1.10;1.10;;;;;;;27.73;36.86;100928.47;5116959;28;20038;-87
2022/09/12 12:05:01;;;;;;;1.98;1.60;;;;;;;28.03;36.23;100932.47;5116753;28;20644;-87
2022/09/12 12:10:50;;;;;;;1.30;1.20;;;;;;;28.51;35.07;100922.41;5112943;28;20036;-88
2022/09/12 12:13:50;;;;;;;1.63;1.42;;;;;;;28.73;35.23;100916.16;5113921;28;20063;-86
2022/09/12 12:16:33;;;;;;;1.63;1.52;;;;;;;29.55;33.97;100914.78;5103341;28;20055;-86